sensor_id;sensor_type;location;lat;lon;timestamp;temperature;humidity
66184;DHT22;52989;48.796;9.806;2023-02-01T00:01:31;4.20;99.90
66184;DHT22;52989;48.796;9.806;2023-02-01T00:03:56;4.00;99.90
66184;DHT22;52989;48.796;9.806;2023-02-01T00:06:22;4.30;99.90
66184;DHT22;52989;48.796;9.806;2023-02-01T00:08:47;4.30;99.90
66184;DHT22;52989;48.796;9.806;2023-02-01T00:11:13;4.00;99.90
66184;DHT22;52989;48.796;9.806;2023-02-01T00:13:39;3.90;99.90
66184;DHT22;52989;48.796;9.806;2023-02-01T00:16:09;4.00;99.90
66184;DHT22;52989;48.796;9.806;2023-02-01T00:18:35;4.00;99.90
66184;DHT22;52989;48.796;9.806;2023-02-01T00:21:00;4.00;99.90
66184;DHT22;52989;48.796;9.806;2023-02-01T00:23:26;4.00;99.90
66184;DHT22;52989;48.796;9.806;2023-02-01T00:25:51;4.30;99.90
66184;DHT22;52989;48.796;9.806;2023-02-01T00:28:17;4.10;99.90
66184;DHT22;52989;48.796;9.806;2023-02-01T00:30:42;4.10;99.90
66184;DHT22;52989;48.796;9.806;2023-02-01T00:33:08;4.10;99.90
66184;DHT22;52989;48.796;9.806;2023-02-01T00:35:34;4.10;99.90
66184;DHT22;52989;48.796;9.806;2023-02-01T00:37:59;4.00;99.90
66184;DHT22;52989;48.796;9.806;2023-02-01T00:40:25;4.00;99.90
66184;DHT22;52989;48.796;9.806;2023-02-01T00:42:51;4.10;99.90
66184;DHT22;52989;48.796;9.806;2023-02-01T00:45:17;4.20;99.90
66184;DHT22;52989;48.796;9.806;2023-02-01T00:47:42;4.10;99.90
66184;DHT22;52989;48.796;9.806;2023-02-01T00:50:08;4.00;99.90
66184;DHT22;52989;48.796;9.806;2023-02-01T00:52:34;4.00;99.90
66184;DHT22;52989;48.796;9.806;2023-02-01T00:54:59;4.20;99.90
66184;DHT22;52989;48.796;9.806;2023-02-01T00:57:25;4.10;99.90
66184;DHT22;52989;48.796;9.806;2023-02-01T00:59:50;4.10;99.90
66184;DHT22;52989;48.796;9.806;2023-02-01T01:02:15;4.20;99.90
66184;DHT22;52989;48.796;9.806;2023-02-01T01:04:41;4.00;99.90
66184;DHT22;52989;48.796;9.806;2023-02-01T01:07:06;4.20;99.90
66184;DHT22;52989;48.796;9.806;2023-02-01T01:09:32;4.10;99.90
66184;DHT22;52989;48.796;9.806;2023-02-01T01:11:57;4.00;99.90
66184;DHT22;52989;48.796;9.806;2023-02-01T01:14:30;4.00;99.90
66184;DHT22;52989;48.796;9.806;2023-02-01T01:16:55;4.00;99.90
66184;DHT22;52989;48.796;9.806;2023-02-01T01:19:21;3.90;99.90
66184;DHT22;52989;48.796;9.806;2023-02-01T01:21:46;3.90;99.90
66184;DHT22;52989;48.796;9.806;2023-02-01T01:24:12;3.90;99.90
66184;DHT22;52989;48.796;9.806;2023-02-01T01:26:37;4.00;99.90
66184;DHT22;52989;48.796;9.806;2023-02-01T01:29:03;3.90;99.90
66184;DHT22;52989;48.796;9.806;2023-02-01T01:31:29;3.90;99.90
66184;DHT22;52989;48.796;9.806;2023-02-01T01:33:56;4.00;99.90
66184;DHT22;52989;48.796;9.806;2023-02-01T01:36:22;4.00;99.90
66184;DHT22;52989;48.796;9.806;2023-02-01T01:38:47;3.90;99.90
66184;DHT22;52989;48.796;9.806;2023-02-01T01:41:15;3.90;99.90
66184;DHT22;52989;48.796;9.806;2023-02-01T01:43:46;3.90;99.90
66184;DHT22;52989;48.796;9.806;2023-02-01T01:46:15;3.90;99.90
66184;DHT22;52989;48.796;9.806;2023-02-01T01:48:40;3.90;99.90
66184;DHT22;52989;48.796;9.806;2023-02-01T01:51:07;4.00;99.90
66184;DHT22;52989;48.796;9.806;2023-02-01T01:53:40;4.00;99.90
66184;DHT22;52989;48.796;9.806;2023-02-01T01:56:06;3.80;99.90
66184;DHT22;52989;48.796;9.806;2023-02-01T01:58:31;3.90;99.90
66184;DHT22;52989;48.796;9.806;2023-02-01T02:00:58;3.80;99.90
66184;DHT22;52989;48.796;9.806;2023-02-01T02:03:25;3.90;99.90
66184;DHT22;52989;48.796;9.806;2023-02-01T02:05:53;4.00;99.90
66184;DHT22;52989;48.796;9.806;2023-02-01T02:08:19;4.00;99.90
66184;DHT22;52989;48.796;9.806;2023-02-01T02:10:48;3.90;99.90
66184;DHT22;52989;48.796;9.806;2023-02-01T02:13:27;3.90;99.90
66184;DHT22;52989;48.796;9.806;2023-02-01T02:16:00;4.00;99.90
66184;DHT22;52989;48.796;9.806;2023-02-01T02:23:58;4.20;99.90
66184;DHT22;52989;48.796;9.806;2023-02-01T02:26:34;4.00;99.90
66184;DHT22;52989;48.796;9.806;2023-02-01T02:32:03;3.90;99.90
66184;DHT22;52989;48.796;9.806;2023-02-01T02:34:32;3.90;99.90
66184;DHT22;52989;48.796;9.806;2023-02-01T02:39:41;4.00;99.90
66184;DHT22;52989;48.796;9.806;2023-02-01T02:47:45;4.10;99.90
66184;DHT22;52989;48.796;9.806;2023-02-01T02:50:22;4.00;99.90
66184;DHT22;52989;48.796;9.806;2023-02-01T02:53:24;4.10;99.90
66184;DHT22;52989;48.796;9.806;2023-02-01T02:56:11;4.00;99.90
66184;DHT22;52989;48.796;9.806;2023-02-01T02:58:56;4.00;99.90
66184;DHT22;52989;48.796;9.806;2023-02-01T03:01:41;4.20;99.90
66184;DHT22;52989;48.796;9.806;2023-02-01T03:04:25;4.20;99.90
66184;DHT22;52989;48.796;9.806;2023-02-01T03:06:51;4.10;99.90
66184;DHT22;52989;48.796;9.806;2023-02-01T03:09:19;4.30;99.90
66184;DHT22;52989;48.796;9.806;2023-02-01T03:11:46;4.40;99.90
66184;DHT22;52989;48.796;9.806;2023-02-01T03:14:32;4.30;99.90
66184;DHT22;52989;48.796;9.806;2023-02-01T03:17:02;4.20;99.90
66184;DHT22;52989;48.796;9.806;2023-02-01T03:19:32;4.20;99.90
66184;DHT22;52989;48.796;9.806;2023-02-01T03:22:00;4.10;99.90
66184;DHT22;52989;48.796;9.806;2023-02-01T03:24:29;4.10;99.90
66184;DHT22;52989;48.796;9.806;2023-02-01T03:27:13;4.20;99.90
66184;DHT22;52989;48.796;9.806;2023-02-01T03:32:23;4.20;99.90
66184;DHT22;52989;48.796;9.806;2023-02-01T03:34:49;4.10;99.90
66184;DHT22;52989;48.796;9.806;2023-02-01T03:37:16;4.20;99.90
66184;DHT22;52989;48.796;9.806;2023-02-01T03:40:05;4.10;99.90
66184;DHT22;52989;48.796;9.806;2023-02-01T03:42:43;4.10;99.90
66184;DHT22;52989;48.796;9.806;2023-02-01T03:45:11;4.20;99.90
66184;DHT22;52989;48.796;9.806;2023-02-01T03:47:39;4.20;99.90
66184;DHT22;52989;48.796;9.806;2023-02-01T03:50:21;4.20;99.90
66184;DHT22;52989;48.796;9.806;2023-02-01T03:52:51;4.10;99.90
66184;DHT22;52989;48.796;9.806;2023-02-01T03:55:18;4.10;99.90
66184;DHT22;52989;48.796;9.806;2023-02-01T03:57:50;4.20;99.90
66184;DHT22;52989;48.796;9.806;2023-02-01T04:00:21;4.20;99.90
66184;DHT22;52989;48.796;9.806;2023-02-01T04:02:47;4.20;99.90
66184;DHT22;52989;48.796;9.806;2023-02-01T04:05:12;4.20;99.90
66184;DHT22;52989;48.796;9.806;2023-02-01T04:07:38;4.30;99.90
66184;DHT22;52989;48.796;9.806;2023-02-01T04:10:03;4.20;99.90
66184;DHT22;52989;48.796;9.806;2023-02-01T04:12:29;4.20;99.90
66184;DHT22;52989;48.796;9.806;2023-02-01T04:14:55;4.20;99.90
66184;DHT22;52989;48.796;9.806;2023-02-01T04:17:20;4.30;99.90
66184;DHT22;52989;48.796;9.806;2023-02-01T04:19:45;4.20;99.90
66184;DHT22;52989;48.796;9.806;2023-02-01T04:22:11;4.20;99.90
66184;DHT22;52989;48.796;9.806;2023-02-01T04:24:37;4.40;99.90
66184;DHT22;52989;48.796;9.806;2023-02-01T04:27:03;4.30;99.90
66184;DHT22;52989;48.796;9.806;2023-02-01T04:29:28;4.30;99.90
66184;DHT22;52989;48.796;9.806;2023-02-01T04:31:54;4.20;99.90
66184;DHT22;52989;48.796;9.806;2023-02-01T04:34:19;4.30;99.90
66184;DHT22;52989;48.796;9.806;2023-02-01T04:36:45;4.30;99.90
66184;DHT22;52989;48.796;9.806;2023-02-01T04:39:10;4.10;99.90
66184;DHT22;52989;48.796;9.806;2023-02-01T04:41:36;4.20;99.90
66184;DHT22;52989;48.796;9.806;2023-02-01T04:44:01;4.30;99.90
66184;DHT22;52989;48.796;9.806;2023-02-01T04:46:26;4.30;99.90
66184;DHT22;52989;48.796;9.806;2023-02-01T04:48:52;4.30;99.90
66184;DHT22;52989;48.796;9.806;2023-02-01T04:51:17;4.20;99.90
66184;DHT22;52989;48.796;9.806;2023-02-01T04:53:43;4.30;99.90
66184;DHT22;52989;48.796;9.806;2023-02-01T04:56:09;4.30;99.90
66184;DHT22;52989;48.796;9.806;2023-02-01T04:58:34;4.30;99.90
66184;DHT22;52989;48.796;9.806;2023-02-01T05:01:02;4.40;99.90
66184;DHT22;52989;48.796;9.806;2023-02-01T05:03:29;4.40;99.90
66184;DHT22;52989;48.796;9.806;2023-02-01T05:05:55;4.40;99.90
66184;DHT22;52989;48.796;9.806;2023-02-01T05:08:20;4.20;99.90
66184;DHT22;52989;48.796;9.806;2023-02-01T05:10:47;4.40;99.90
66184;DHT22;52989;48.796;9.806;2023-02-01T05:13:13;4.30;99.90
66184;DHT22;52989;48.796;9.806;2023-02-01T05:15:57;4.70;99.90
66184;DHT22;52989;48.796;9.806;2023-02-01T05:18:22;4.60;99.90
66184;DHT22;52989;48.796;9.806;2023-02-01T05:20:48;4.50;99.90
66184;DHT22;52989;48.796;9.806;2023-02-01T05:23:13;4.40;99.90
66184;DHT22;52989;48.796;9.806;2023-02-01T05:25:39;4.50;99.90
66184;DHT22;52989;48.796;9.806;2023-02-01T05:28:04;4.30;99.90
66184;DHT22;52989;48.796;9.806;2023-02-01T05:30:30;4.40;99.90
66184;DHT22;52989;48.796;9.806;2023-02-01T05:32:55;4.50;99.90
66184;DHT22;52989;48.796;9.806;2023-02-01T05:35:21;4.40;99.90
66184;DHT22;52989;48.796;9.806;2023-02-01T05:37:46;4.50;99.90
66184;DHT22;52989;48.796;9.806;2023-02-01T05:40:12;4.50;99.90
66184;DHT22;52989;48.796;9.806;2023-02-01T05:42:37;4.40;99.90
66184;DHT22;52989;48.796;9.806;2023-02-01T05:45:03;4.40;99.90
66184;DHT22;52989;48.796;9.806;2023-02-01T05:47:30;4.30;99.90
66184;DHT22;52989;48.796;9.806;2023-02-01T05:49:56;4.40;99.90
66184;DHT22;52989;48.796;9.806;2023-02-01T05:52:21;4.30;99.90
66184;DHT22;52989;48.796;9.806;2023-02-01T05:54:47;4.50;99.90
66184;DHT22;52989;48.796;9.806;2023-02-01T05:57:12;4.50;99.90
66184;DHT22;52989;48.796;9.806;2023-02-01T05:59:38;4.40;99.90
66184;DHT22;52989;48.796;9.806;2023-02-01T06:02:06;4.50;99.90
66184;DHT22;52989;48.796;9.806;2023-02-01T06:04:32;4.60;99.90
66184;DHT22;52989;48.796;9.806;2023-02-01T06:06:57;4.50;99.90
66184;DHT22;52989;48.796;9.806;2023-02-01T06:09:23;4.40;99.90
66184;DHT22;52989;48.796;9.806;2023-02-01T06:11:48;4.40;99.90
66184;DHT22;52989;48.796;9.806;2023-02-01T06:14:14;4.60;99.90
66184;DHT22;52989;48.796;9.806;2023-02-01T06:16:39;4.40;99.90
66184;DHT22;52989;48.796;9.806;2023-02-01T06:19:05;4.40;99.90
66184;DHT22;52989;48.796;9.806;2023-02-01T06:21:30;4.30;99.90
66184;DHT22;52989;48.796;9.806;2023-02-01T06:23:56;4.30;99.90
66184;DHT22;52989;48.796;9.806;2023-02-01T06:26:22;4.30;99.90
66184;DHT22;52989;48.796;9.806;2023-02-01T06:28:48;4.30;99.90
66184;DHT22;52989;48.796;9.806;2023-02-01T06:31:14;4.30;99.90
66184;DHT22;52989;48.796;9.806;2023-02-01T06:33:39;4.40;99.90
66184;DHT22;52989;48.796;9.806;2023-02-01T06:36:06;4.30;99.90
66184;DHT22;52989;48.796;9.806;2023-02-01T06:38:32;4.30;99.90
66184;DHT22;52989;48.796;9.806;2023-02-01T06:41:00;4.30;99.90
66184;DHT22;52989;48.796;9.806;2023-02-01T06:43:26;4.30;99.90
66184;DHT22;52989;48.796;9.806;2023-02-01T06:45:52;4.30;99.90
66184;DHT22;52989;48.796;9.806;2023-02-01T06:48:18;4.40;99.90
66184;DHT22;52989;48.796;9.806;2023-02-01T06:50:44;4.40;99.90
66184;DHT22;52989;48.796;9.806;2023-02-01T06:53:09;4.30;99.90
66184;DHT22;52989;48.796;9.806;2023-02-01T06:55:35;4.40;99.90
66184;DHT22;52989;48.796;9.806;2023-02-01T06:58:00;4.40;99.90
66184;DHT22;52989;48.796;9.806;2023-02-01T07:00:27;4.40;99.90
66184;DHT22;52989;48.796;9.806;2023-02-01T07:02:53;4.50;99.90
66184;DHT22;52989;48.796;9.806;2023-02-01T07:05:18;4.30;99.90
66184;DHT22;52989;48.796;9.806;2023-02-01T07:07:44;4.30;99.90
66184;DHT22;52989;48.796;9.806;2023-02-01T07:10:10;4.30;99.90
66184;DHT22;52989;48.796;9.806;2023-02-01T07:12:35;4.30;99.90
66184;DHT22;52989;48.796;9.806;2023-02-01T07:15:01;4.30;99.90
66184;DHT22;52989;48.796;9.806;2023-02-01T07:17:27;4.40;99.90
66184;DHT22;52989;48.796;9.806;2023-02-01T07:19:54;4.40;99.90
66184;DHT22;52989;48.796;9.806;2023-02-01T07:22:20;4.50;99.90
66184;DHT22;52989;48.796;9.806;2023-02-01T07:24:45;4.40;99.90
66184;DHT22;52989;48.796;9.806;2023-02-01T07:27:11;4.50;99.90
66184;DHT22;52989;48.796;9.806;2023-02-01T07:29:36;4.50;99.90
66184;DHT22;52989;48.796;9.806;2023-02-01T07:32:02;4.50;99.90
66184;DHT22;52989;48.796;9.806;2023-02-01T07:34:27;4.50;99.90
66184;DHT22;52989;48.796;9.806;2023-02-01T07:36:53;4.50;99.90
66184;DHT22;52989;48.796;9.806;2023-02-01T07:39:19;4.50;99.90
66184;DHT22;52989;48.796;9.806;2023-02-01T07:41:45;4.50;99.90
66184;DHT22;52989;48.796;9.806;2023-02-01T07:44:10;4.50;99.90
66184;DHT22;52989;48.796;9.806;2023-02-01T07:46:36;4.60;99.90
66184;DHT22;52989;48.796;9.806;2023-02-01T07:49:01;4.60;99.90
66184;DHT22;52989;48.796;9.806;2023-02-01T07:51:27;4.50;99.90
66184;DHT22;52989;48.796;9.806;2023-02-01T07:53:52;4.50;99.90
66184;DHT22;52989;48.796;9.806;2023-02-01T07:56:19;4.50;99.90
66184;DHT22;52989;48.796;9.806;2023-02-01T07:58:48;4.40;99.90
66184;DHT22;52989;48.796;9.806;2023-02-01T08:01:15;4.40;99.90
66184;DHT22;52989;48.796;9.806;2023-02-01T08:03:47;4.40;99.90
66184;DHT22;52989;48.796;9.806;2023-02-01T08:06:12;4.40;99.90
66184;DHT22;52989;48.796;9.806;2023-02-01T08:08:38;4.20;99.90
66184;DHT22;52989;48.796;9.806;2023-02-01T08:11:04;4.10;99.90
66184;DHT22;52989;48.796;9.806;2023-02-01T08:13:30;4.20;99.90
66184;DHT22;52989;48.796;9.806;2023-02-01T08:15:59;4.30;99.90
66184;DHT22;52989;48.796;9.806;2023-02-01T08:18:25;4.20;99.90
66184;DHT22;52989;48.796;9.806;2023-02-01T08:20:50;4.10;99.90
66184;DHT22;52989;48.796;9.806;2023-02-01T08:23:16;4.20;99.90
66184;DHT22;52989;48.796;9.806;2023-02-01T08:25:42;4.10;99.90
66184;DHT22;52989;48.796;9.806;2023-02-01T08:28:08;4.20;99.90
66184;DHT22;52989;48.796;9.806;2023-02-01T08:30:34;4.20;99.90
66184;DHT22;52989;48.796;9.806;2023-02-01T08:33:01;4.10;99.90
66184;DHT22;52989;48.796;9.806;2023-02-01T08:35:26;4.20;99.90
66184;DHT22;52989;48.796;9.806;2023-02-01T08:37:52;4.30;99.90
66184;DHT22;52989;48.796;9.806;2023-02-01T08:40:17;4.30;99.90
66184;DHT22;52989;48.796;9.806;2023-02-01T08:42:43;4.30;99.90
66184;DHT22;52989;48.796;9.806;2023-02-01T08:45:24;4.30;99.90
66184;DHT22;52989;48.796;9.806;2023-02-01T08:47:53;4.50;99.90
66184;DHT22;52989;48.796;9.806;2023-02-01T08:50:19;4.40;99.90
66184;DHT22;52989;48.796;9.806;2023-02-01T08:52:45;4.40;99.90
66184;DHT22;52989;48.796;9.806;2023-02-01T08:55:11;4.40;99.90
66184;DHT22;52989;48.796;9.806;2023-02-01T08:57:36;4.40;99.90
66184;DHT22;52989;48.796;9.806;2023-02-01T09:00:03;4.50;99.90
66184;DHT22;52989;48.796;9.806;2023-02-01T09:02:29;4.50;99.90
66184;DHT22;52989;48.796;9.806;2023-02-01T09:04:55;4.50;99.90
66184;DHT22;52989;48.796;9.806;2023-02-01T09:07:21;4.60;99.90
66184;DHT22;52989;48.796;9.806;2023-02-01T09:09:47;4.60;99.90
66184;DHT22;52989;48.796;9.806;2023-02-01T09:12:12;4.70;99.90
66184;DHT22;52989;48.796;9.806;2023-02-01T09:14:38;4.80;99.90
66184;DHT22;52989;48.796;9.806;2023-02-01T09:17:03;4.70;99.90
66184;DHT22;52989;48.796;9.806;2023-02-01T09:19:30;4.80;99.90
66184;DHT22;52989;48.796;9.806;2023-02-01T09:21:56;4.80;99.90
66184;DHT22;52989;48.796;9.806;2023-02-01T09:24:21;4.80;99.90
66184;DHT22;52989;48.796;9.806;2023-02-01T09:26:47;4.80;99.90
66184;DHT22;52989;48.796;9.806;2023-02-01T09:29:13;4.80;99.90
66184;DHT22;52989;48.796;9.806;2023-02-01T09:31:39;4.80;99.90
66184;DHT22;52989;48.796;9.806;2023-02-01T09:34:05;4.80;99.90
66184;DHT22;52989;48.796;9.806;2023-02-01T09:36:31;4.90;99.90
66184;DHT22;52989;48.796;9.806;2023-02-01T09:38:56;5.00;99.90
66184;DHT22;52989;48.796;9.806;2023-02-01T09:43:50;5.10;99.90
66184;DHT22;52989;48.796;9.806;2023-02-01T09:48:46;5.10;99.90
66184;DHT22;52989;48.796;9.806;2023-02-01T09:51:23;4.90;99.90
66184;DHT22;52989;48.796;9.806;2023-02-01T09:53:55;4.90;99.90
66184;DHT22;52989;48.796;9.806;2023-02-01T09:56:23;5.00;99.90
66184;DHT22;52989;48.796;9.806;2023-02-01T09:59:01;4.70;99.90
66184;DHT22;52989;48.796;9.806;2023-02-01T10:01:28;4.60;99.90
66184;DHT22;52989;48.796;9.806;2023-02-01T10:04:01;4.70;99.90
66184;DHT22;52989;48.796;9.806;2023-02-01T10:14:28;4.60;99.90
66184;DHT22;52989;48.796;9.806;2023-02-01T10:19:44;4.60;99.90
66184;DHT22;52989;48.796;9.806;2023-02-01T10:27:36;4.70;99.90
66184;DHT22;52989;48.796;9.806;2023-02-01T10:30:45;5.00;99.90
66184;DHT22;52989;48.796;9.806;2023-02-01T10:32:55;5.10;99.90
66184;DHT22;52989;48.796;9.806;2023-02-01T10:35:22;5.20;99.90
66184;DHT22;52989;48.796;9.806;2023-02-01T10:37:48;5.20;99.90
66184;DHT22;52989;48.796;9.806;2023-02-01T10:40:17;5.00;99.90
66184;DHT22;52989;48.796;9.806;2023-02-01T10:42:44;4.80;99.90
66184;DHT22;52989;48.796;9.806;2023-02-01T10:45:16;5.00;99.90
66184;DHT22;52989;48.796;9.806;2023-02-01T10:47:43;5.00;99.90
66184;DHT22;52989;48.796;9.806;2023-02-01T10:50:14;5.00;99.90
66184;DHT22;52989;48.796;9.806;2023-02-01T10:57:55;5.00;99.90
66184;DHT22;52989;48.796;9.806;2023-02-01T11:00:21;5.00;99.90
66184;DHT22;52989;48.796;9.806;2023-02-01T11:02:47;4.90;99.90
66184;DHT22;52989;48.796;9.806;2023-02-01T11:05:15;5.00;99.90
66184;DHT22;52989;48.796;9.806;2023-02-01T11:07:46;5.00;99.90
66184;DHT22;52989;48.796;9.806;2023-02-01T11:10:33;5.10;99.90
66184;DHT22;52989;48.796;9.806;2023-02-01T11:13:01;5.00;99.90
66184;DHT22;52989;48.796;9.806;2023-02-01T11:15:27;5.00;99.90
66184;DHT22;52989;48.796;9.806;2023-02-01T11:17:53;5.10;99.90
66184;DHT22;52989;48.796;9.806;2023-02-01T11:22:56;5.10;99.90
66184;DHT22;52989;48.796;9.806;2023-02-01T11:25:22;5.20;99.90
66184;DHT22;52989;48.796;9.806;2023-02-01T11:27:48;5.00;99.90
66184;DHT22;52989;48.796;9.806;2023-02-01T11:30:16;5.00;99.90
66184;DHT22;52989;48.796;9.806;2023-02-01T11:32:42;5.00;99.90
66184;DHT22;52989;48.796;9.806;2023-02-01T11:35:07;5.00;99.90
66184;DHT22;52989;48.796;9.806;2023-02-01T11:37:40;5.00;99.90
66184;DHT22;52989;48.796;9.806;2023-02-01T11:45:59;5.00;99.90
66184;DHT22;52989;48.796;9.806;2023-02-01T11:48:26;5.10;99.90
66184;DHT22;52989;48.796;9.806;2023-02-01T11:56:49;5.10;99.90
66184;DHT22;52989;48.796;9.806;2023-02-01T11:59:23;5.10;99.90
66184;DHT22;52989;48.796;9.806;2023-02-01T12:01:55;5.20;99.90
66184;DHT22;52989;48.796;9.806;2023-02-01T12:07:03;5.30;99.90
66184;DHT22;52989;48.796;9.806;2023-02-01T12:12:12;5.30;99.90
66184;DHT22;52989;48.796;9.806;2023-02-01T12:17:16;5.20;99.90
66184;DHT22;52989;48.796;9.806;2023-02-01T12:27:46;5.20;99.90
66184;DHT22;52989;48.796;9.806;2023-02-01T12:30:27;5.20;99.90
66184;DHT22;52989;48.796;9.806;2023-02-01T12:35:41;5.20;99.90
66184;DHT22;52989;48.796;9.806;2023-02-01T12:40:53;5.20;99.90
66184;DHT22;52989;48.796;9.806;2023-02-01T12:43:22;5.30;99.90
66184;DHT22;52989;48.796;9.806;2023-02-01T12:45:58;5.20;99.90
66184;DHT22;52989;48.796;9.806;2023-02-01T12:51:05;5.30;99.80
66184;DHT22;52989;48.796;9.806;2023-02-01T12:55:58;5.20;99.80
66184;DHT22;52989;48.796;9.806;2023-02-01T13:01:02;5.20;99.90
66184;DHT22;52989;48.796;9.806;2023-02-01T13:05:58;5.30;98.60
66184;DHT22;52989;48.796;9.806;2023-02-01T13:08:36;5.30;98.90
66184;DHT22;52989;48.796;9.806;2023-02-01T13:11:04;5.30;99.50
66184;DHT22;52989;48.796;9.806;2023-02-01T13:13:32;5.40;99.90
66184;DHT22;52989;48.796;9.806;2023-02-01T13:16:08;5.50;96.80
66184;DHT22;52989;48.796;9.806;2023-02-01T13:18:37;5.60;98.00
66184;DHT22;52989;48.796;9.806;2023-02-01T13:23:30;5.40;97.70
66184;DHT22;52989;48.796;9.806;2023-02-01T13:25:56;5.30;97.10
66184;DHT22;52989;48.796;9.806;2023-02-01T13:28:24;5.30;97.90
66184;DHT22;52989;48.796;9.806;2023-02-01T13:41:20;5.30;99.90
66184;DHT22;52989;48.796;9.806;2023-02-01T13:43:50;5.30;99.90
66184;DHT22;52989;48.796;9.806;2023-02-01T13:46:16;5.40;96.50
66184;DHT22;52989;48.796;9.806;2023-02-01T13:48:52;5.40;96.60
66184;DHT22;52989;48.796;9.806;2023-02-01T13:51:31;5.30;96.70
66184;DHT22;52989;48.796;9.806;2023-02-01T13:53:57;5.30;96.90
66184;DHT22;52989;48.796;9.806;2023-02-01T13:56:23;5.30;97.40
66184;DHT22;52989;48.796;9.806;2023-02-01T13:58:49;5.20;97.90
66184;DHT22;52989;48.796;9.806;2023-02-01T14:06:15;5.30;98.00
66184;DHT22;52989;48.796;9.806;2023-02-01T14:08:41;5.20;98.20
66184;DHT22;52989;48.796;9.806;2023-02-01T14:11:07;5.20;97.70
66184;DHT22;52989;48.796;9.806;2023-02-01T14:13:52;5.10;98.60
66184;DHT22;52989;48.796;9.806;2023-02-01T14:16:18;5.20;98.40
66184;DHT22;52989;48.796;9.806;2023-02-01T14:23:38;5.20;98.10
66184;DHT22;52989;48.796;9.806;2023-02-01T14:26:06;5.30;98.00
66184;DHT22;52989;48.796;9.806;2023-02-01T14:28:32;5.20;97.90
66184;DHT22;52989;48.796;9.806;2023-02-01T14:31:00;5.10;98.20
66184;DHT22;52989;48.796;9.806;2023-02-01T14:33:26;5.20;98.20
66184;DHT22;52989;48.796;9.806;2023-02-01T14:36:00;5.10;97.80
66184;DHT22;52989;48.796;9.806;2023-02-01T14:38:26;5.20;97.40
66184;DHT22;52989;48.796;9.806;2023-02-01T14:40:52;5.30;98.50
66184;DHT22;52989;48.796;9.806;2023-02-01T14:43:19;5.20;97.60
66184;DHT22;52989;48.796;9.806;2023-02-01T14:46:03;5.20;97.70
66184;DHT22;52989;48.796;9.806;2023-02-01T14:50:55;5.10;97.80
66184;DHT22;52989;48.796;9.806;2023-02-01T14:53:28;5.10;98.30
66184;DHT22;52989;48.796;9.806;2023-02-01T15:00:58;5.30;98.00
66184;DHT22;52989;48.796;9.806;2023-02-01T15:05:56;5.10;97.60
66184;DHT22;52989;48.796;9.806;2023-02-01T15:08:25;5.10;98.10
66184;DHT22;52989;48.796;9.806;2023-02-01T15:10:52;5.10;97.80
66184;DHT22;52989;48.796;9.806;2023-02-01T15:13:18;5.10;97.60
66184;DHT22;52989;48.796;9.806;2023-02-01T15:15:44;5.10;97.70
66184;DHT22;52989;48.796;9.806;2023-02-01T15:18:14;5.20;98.30
66184;DHT22;52989;48.796;9.806;2023-02-01T15:20:41;5.10;98.20
66184;DHT22;52989;48.796;9.806;2023-02-01T15:23:15;5.10;97.50
66184;DHT22;52989;48.796;9.806;2023-02-01T15:25:44;5.10;97.40
66184;DHT22;52989;48.796;9.806;2023-02-01T15:28:13;5.10;97.30
66184;DHT22;52989;48.796;9.806;2023-02-01T15:30:39;5.00;97.90
66184;DHT22;52989;48.796;9.806;2023-02-01T15:35:36;5.20;96.40
66184;DHT22;52989;48.796;9.806;2023-02-01T15:38:18;5.20;96.60
66184;DHT22;52989;48.796;9.806;2023-02-01T15:40:57;5.30;96.30
66184;DHT22;52989;48.796;9.806;2023-02-01T15:43:24;5.30;96.10
66184;DHT22;52989;48.796;9.806;2023-02-01T15:45:50;5.30;95.90
66184;DHT22;52989;48.796;9.806;2023-02-01T15:48:24;5.30;96.10
66184;DHT22;52989;48.796;9.806;2023-02-01T15:50:50;5.30;95.60
66184;DHT22;52989;48.796;9.806;2023-02-01T15:53:18;5.30;95.30
66184;DHT22;52989;48.796;9.806;2023-02-01T15:55:44;5.40;95.10
66184;DHT22;52989;48.796;9.806;2023-02-01T15:58:16;5.30;95.10
66184;DHT22;52989;48.796;9.806;2023-02-01T16:00:53;5.30;95.40
66184;DHT22;52989;48.796;9.806;2023-02-01T16:03:36;5.30;94.80
66184;DHT22;52989;48.796;9.806;2023-02-01T16:06:03;5.50;95.70
66184;DHT22;52989;48.796;9.806;2023-02-01T16:08:30;5.50;94.30
66184;DHT22;52989;48.796;9.806;2023-02-01T16:11:01;5.60;94.70
66184;DHT22;52989;48.796;9.806;2023-02-01T16:13:27;5.50;94.30
66184;DHT22;52989;48.796;9.806;2023-02-01T16:15:52;5.50;94.40
66184;DHT22;52989;48.796;9.806;2023-02-01T16:18:18;5.40;94.30
66184;DHT22;52989;48.796;9.806;2023-02-01T16:20:44;5.40;94.70
66184;DHT22;52989;48.796;9.806;2023-02-01T16:23:09;5.40;94.60
66184;DHT22;52989;48.796;9.806;2023-02-01T16:25:36;5.40;94.30
66184;DHT22;52989;48.796;9.806;2023-02-01T16:28:01;5.30;95.00
66184;DHT22;52989;48.796;9.806;2023-02-01T16:30:27;5.30;94.80
66184;DHT22;52989;48.796;9.806;2023-02-01T16:32:56;5.30;95.30
66184;DHT22;52989;48.796;9.806;2023-02-01T16:37:51;5.30;95.20
66184;DHT22;52989;48.796;9.806;2023-02-01T16:40:17;5.30;94.70
66184;DHT22;52989;48.796;9.806;2023-02-01T16:42:44;5.30;94.80
66184;DHT22;52989;48.796;9.806;2023-02-01T16:45:10;5.30;95.30
66184;DHT22;52989;48.796;9.806;2023-02-01T16:47:36;5.30;95.20
66184;DHT22;52989;48.796;9.806;2023-02-01T16:50:02;5.40;95.90
66184;DHT22;52989;48.796;9.806;2023-02-01T16:52:28;5.20;95.80
66184;DHT22;52989;48.796;9.806;2023-02-01T16:54:53;5.20;95.50
66184;DHT22;52989;48.796;9.806;2023-02-01T16:57:19;5.20;95.60
66184;DHT22;52989;48.796;9.806;2023-02-01T16:59:47;5.20;95.70
66184;DHT22;52989;48.796;9.806;2023-02-01T17:02:16;5.10;96.00
66184;DHT22;52989;48.796;9.806;2023-02-01T17:04:41;5.20;96.20
66184;DHT22;52989;48.796;9.806;2023-02-01T17:07:10;5.10;96.10
66184;DHT22;52989;48.796;9.806;2023-02-01T17:09:36;5.10;96.60
66184;DHT22;52989;48.796;9.806;2023-02-01T17:12:02;5.20;95.70
66184;DHT22;52989;48.796;9.806;2023-02-01T17:14:29;5.10;96.50
66184;DHT22;52989;48.796;9.806;2023-02-01T17:16:55;5.10;96.00
66184;DHT22;52989;48.796;9.806;2023-02-01T17:19:21;5.10;96.40
66184;DHT22;52989;48.796;9.806;2023-02-01T17:21:54;5.10;96.10
66184;DHT22;52989;48.796;9.806;2023-02-01T17:24:25;5.10;96.00
66184;DHT22;52989;48.796;9.806;2023-02-01T17:26:51;5.00;96.10
66184;DHT22;52989;48.796;9.806;2023-02-01T17:29:16;5.10;96.10
66184;DHT22;52989;48.796;9.806;2023-02-01T17:31:43;5.10;95.80
66184;DHT22;52989;48.796;9.806;2023-02-01T17:34:09;5.10;96.00
66184;DHT22;52989;48.796;9.806;2023-02-01T17:36:35;5.10;96.10
66184;DHT22;52989;48.796;9.806;2023-02-01T17:39:02;5.20;96.00
66184;DHT22;52989;48.796;9.806;2023-02-01T17:41:27;5.20;95.50
66184;DHT22;52989;48.796;9.806;2023-02-01T17:43:53;5.10;96.00
66184;DHT22;52989;48.796;9.806;2023-02-01T17:46:18;5.10;96.00
66184;DHT22;52989;48.796;9.806;2023-02-01T17:48:45;5.20;95.70
66184;DHT22;52989;48.796;9.806;2023-02-01T17:51:18;5.20;95.90
66184;DHT22;52989;48.796;9.806;2023-02-01T17:53:43;5.20;95.20
66184;DHT22;52989;48.796;9.806;2023-02-01T17:56:17;5.20;95.30
66184;DHT22;52989;48.796;9.806;2023-02-01T17:58:43;5.20;95.90